Oklahoma City, OK (73195)

10:44 PM CDT on September 23, 2014 (GMT -0500)
Penshurst 3rd | Change Station
CLOSE
Current Station
Personal Weather Station
Location: Oklahoma CIty, OK
Elevation: 1200 ft
Nearby Weather Stations

Elev 1200 ft 35.54 °N, 97.56 °W | Updated 47 seconds ago

Clear
Clear
70.2 °F
Feels Like 77 °F
N
0.0
Wind Variable Wind from ESE
Gusts 0.0 mph

Today
High -- | Low -- °F
--% Chance of Precip.
Yesterday
High -- | Low -- °F
Precip. -- in
7:18 AM 7:25 PM
Waning Crescent, 0% visible
Pressure 30.09 in
Visibility 10.0 miles
Clouds Clear
Heat Index 77 °F
Dew Point 52 °F
Humidity 53%
Rainfall 0.00 in
Snow Depth Not available.
UV 0 out of 12
Pollen 9.80 out of 12
Ozone Good
PM2.5 Moderate
Flu Activity Not available.
METAR KPWA 240253Z AUTO 15009KT 10SM CLR 23/11 A3012 RMK AO2 SLP187 T02280106 53016

More Conditions Fewer Conditions

Pressure 30.09 in
Visibility 10.0 miles
Clouds Clear
Heat Index 77 °F
Dew Point 52 °F
Humidity 53%
Rainfall 0.00 in
Snow Depth Not available.
UV 0 out of 12
Pollen 9.80 out of 12
Ozone Good
PM2.5 Moderate
Flu Activity Not available.
METAR KPWA 240253Z AUTO 15009KT 10SM CLR 23/11 A3012 RMK AO2 SLP187 T02280106 53016

More Conditions Fewer Conditions

10-Day Weather Forecast

Almanac

Astronomy

Sep. 23, 2014 Rise Set
Actual Time 7:18 AM CDT 7:25 PM CDT
Civil Twilight 6:53 AM CDT 7:50 PM CDT
Nautical Twilight 6:23 AM CDT 8:20 PM CDT
Astronomical Twilight 5:53 AM CDT 8:50 PM CDT
Moon 6:44 AM CDT (9/23) 7:05 PM CDT (9/23)
Length of Visible Light 12h 57m
Length of Day
12h 06m
Tomorrow will be 2m 14s shorter.
Waning Crescent, 0% of the Moon is Illuminated
Today
Waning Crescent
Sep 24
New
Oct 1
First Quarter
Oct 8
Full
Oct 15
Last Quarter

Today's Extremes

State Highs State Lows

Community

WunderPhotos

Upload Photos

1,755,878 photos uploaded!

WunderBlogs® & News

Nearby

Air Quality

  Air Quality AQ Index Pollutant
Yesterday Good
OZONE
Yesterday Good
PM2.5
Current Moderate
PM2.5
Current Good
OZONE
Tuesday Good
OZONE
Tuesday Good
PM2.5
Wednesday Good
OZONE
Wednesday Good
PM2.5
Thursday Moderate
OZONE
Thursday Good
PM2.5
Friday Moderate
OZONE
Friday Good
PM2.5
Saturday Good
OZONE
Saturday Good
PM2.5
Sunday Good
OZONE
Sunday Good
PM2.5

Snow Depth

Station Depth Elevation
No new snow has been reported.

Earthquake Activity

City Distance Mag. Time & Date
Guthrie, Oklahoma 18 miles 2.5 10:07 AM CDT
2014-09-23
Helena, Oklahoma 82 miles 2.5 9:27 AM CDT
2014-09-23
Lindsay, Oklahoma 65 miles 3.0 8:37 AM CDT
2014-09-23
Boley, Oklahoma 55 miles 3.4 2:58 AM CDT
2014-09-23
Minimum magnitude displayed is 2.5.

Coastal Water Temperatures

Place Temperature
No Stations Reporting

Nearby Weather Stations